Time,TemperatureF,DewpointF,PressureIn,WindDirection,WindDirectionDegrees,WindSpeedMPH,WindSpeedGustMPH,Humidity,HourlyPrecipIn,Conditions,Clouds,dailyrainin,SoftwareType,DateUTC
2013-09-03 00:03:00,53.0,52.0,-100.00,WNW,300,0.0,0.0,95,0.00,,,-99.99,,2013-09-03 05:03:00,
2013-09-03 00:11:00,52.0,51.0,-100.00,SSE,150,0.0,0.0,97,0.00,,,-99.99,,2013-09-03 05:11:00,
2013-09-03 00:43:00,52.0,51.0,-100.00,SSE,150,0.0,0.0,97,0.00,,,-99.99,,2013-09-03 05:43:00,
2013-09-03 00:52:00,52.0,51.0,-100.00,SSE,150,0.0,0.0,97,0.00,,,-99.99,,2013-09-03 05:52:00,
2013-09-03 01:02:00,52.0,51.0,-100.00,SSE,150,0.0,0.0,97,0.00,,,-99.99,,2013-09-03 06:02:00,
2013-09-03 01:10:00,51.0,50.0,-100.00,West,260,0.0,0.0,98,0.00,,,-99.99,,2013-09-03 06:10:00,
2013-09-03 01:43:00,51.0,50.0,-100.00,West,260,0.0,0.0,98,0.00,,,-99.99,,2013-09-03 06:43:00,
2013-09-03 01:52:00,51.0,50.0,-100.00,West,260,0.0,0.0,98,0.00,,,-99.99,,2013-09-03 06:52:00,
2013-09-03 02:02:00,51.0,50.0,-100.00,West,260,0.0,0.0,98,0.00,,,-99.99,,2013-09-03 07:02:00,
2013-09-03 02:10:00,50.0,49.0,-100.00,West,275,0.0,0.0,96,0.00,,,-99.99,,2013-09-03 07:10:00,
2013-09-03 02:42:00,50.0,49.0,-100.00,West,275,0.0,0.0,96,0.00,,,-99.99,,2013-09-03 07:42:00,
2013-09-03 02:53:00,50.0,49.0,-100.00,West,275,0.0,0.0,96,0.00,,,-99.99,,2013-09-03 07:53:00,
2013-09-03 03:03:00,50.0,49.0,-100.00,West,275,0.0,0.0,96,0.00,,,-99.99,,2013-09-03 08:03:00,
2013-09-03 03:11:00,50.0,48.0,-100.00,West,275,0.0,0.0,95,0.00,,,-99.99,,2013-09-03 08:11:00,
2013-09-03 03:42:00,50.0,48.0,-100.00,West,275,0.0,0.0,95,0.00,,,-99.99,,2013-09-03 08:42:00,
2013-09-03 03:52:00,50.0,48.0,-100.00,West,275,0.0,0.0,95,0.00,,,-99.99,,2013-09-03 08:52:00,
2013-09-03 04:02:00,50.0,48.0,-100.00,West,275,0.0,0.0,95,0.00,,,-99.99,,2013-09-03 09:02:00,
2013-09-03 04:43:00,49.0,47.0,-100.00,WNW,295,0.0,0.0,94,0.00,,,-99.99,,2013-09-03 09:43:00,
2013-09-03 04:53:00,49.0,47.0,-100.00,WNW,295,0.0,0.0,94,0.00,,,-99.99,,2013-09-03 09:53:00,
2013-09-03 05:03:00,49.0,47.0,-100.00,WNW,295,0.0,0.0,94,0.00,,,-99.99,,2013-09-03 10:03:00,
2013-09-03 05:10:00,49.0,48.0,-100.00,WNW,285,0.0,0.0,97,0.00,,,-99.99,,2013-09-03 10:10:00,
2013-09-03 05:42:00,49.0,48.0,-100.00,WNW,285,0.0,0.0,97,0.00,,,-99.99,,2013-09-03 10:42:00,
2013-09-03 05:53:00,49.0,48.0,-100.00,WNW,285,0.0,0.0,97,0.00,,,-99.99,,2013-09-03 10:53:00,
2013-09-03 06:02:00,49.0,48.0,-100.00,WNW,285,0.0,0.0,97,0.00,,,-99.99,,2013-09-03 11:02:00,
2013-09-03 09:42:00,58.0,52.0,-100.00,NW,305,0.0,0.0,79,0.00,,,-99.99,,2013-09-03 14:42:00,
2013-09-03 09:52:00,58.0,52.0,-100.00,NW,305,0.0,0.0,79,0.00,,,-99.99,,2013-09-03 14:52:00,
2013-09-03 10:02:00,58.0,52.0,-100.00,NW,305,0.0,0.0,79,0.00,,,-99.99,,2013-09-03 15:02:00,
2013-09-03 10:10:00,65.0,49.0,-100.00,WSW,255,0.0,0.0,57,0.00,,,-99.99,,2013-09-03 15:10:00,
2013-09-03 11:11:00,66.0,49.0,-100.00,NNW,335,0.0,0.0,54,0.00,,,-99.99,,2013-09-03 16:11:00,
2013-09-03 11:43:00,66.0,49.0,-100.00,NNW,335,0.0,0.0,54,0.00,,,-99.99,,2013-09-03 16:43:00,
2013-09-03 11:54:00,66.0,49.0,-100.00,NNW,335,0.0,0.0,54,0.00,,,-99.99,,2013-09-03 16:54:00,
2013-09-03 12:03:00,66.0,49.0,-100.00,NNW,335,0.0,0.0,54,0.00,,,-99.99,,2013-09-03 17:03:00,
2013-09-03 12:11:00,69.0,47.0,-100.00,West,280,0.0,0.0,46,0.00,,,-99.99,,2013-09-03 17:11:00,
2013-09-03 12:43:00,69.0,47.0,-100.00,West,280,0.0,0.0,46,0.00,,,-99.99,,2013-09-03 17:43:00,
2013-09-03 12:52:00,69.0,47.0,-100.00,West,280,0.0,0.0,46,0.00,,,-99.99,,2013-09-03 17:52:00,
2013-09-03 13:02:00,69.0,47.0,-100.00,West,280,0.0,0.0,46,0.00,,,-99.99,,2013-09-03 18:02:00,
2013-09-03 13:10:00,72.0,48.0,-100.00,West,260,0.0,0.0,42,0.00,,,-99.99,,2013-09-03 18:10:00,
2013-09-03 13:43:00,72.0,48.0,-100.00,West,260,0.0,0.0,42,0.00,,,-99.99,,2013-09-03 18:43:00,
2013-09-03 13:52:00,72.0,48.0,-100.00,West,260,0.0,0.0,42,0.00,,,-99.99,,2013-09-03 18:52:00,
2013-09-03 14:02:00,72.0,48.0,-100.00,West,260,0.0,0.0,42,0.00,,,-99.99,,2013-09-03 19:02:00,
2013-09-03 14:42:00,74.0,51.0,-100.00,WSW,250,0.0,0.0,44,0.00,,,-99.99,,2013-09-03 19:42:00,
2013-09-03 14:52:00,74.0,51.0,-100.00,WSW,250,0.0,0.0,44,0.00,,,-99.99,,2013-09-03 19:52:00,
2013-09-03 15:02:00,74.0,51.0,-100.00,WSW,250,0.0,0.0,44,0.00,,,-99.99,,2013-09-03 20:02:00,
2013-09-03 15:42:00,71.0,49.0,-100.00,WSW,255,0.0,0.0,47,0.00,,,-99.99,,2013-09-03 20:42:00,
2013-09-03 15:53:00,71.0,49.0,-100.00,WSW,255,0.0,0.0,47,0.00,,,-99.99,,2013-09-03 20:53:00,
2013-09-03 16:01:00,71.0,49.0,-100.00,WSW,255,0.0,0.0,47,0.00,,,-99.99,,2013-09-03 21:01:00,
2013-09-03 16:44:00,73.0,50.0,-100.00,WSW,255,0.0,0.0,44,0.00,,,-99.99,,2013-09-03 21:44:00,
2013-09-03 16:54:00,73.0,50.0,-100.00,WSW,255,0.0,0.0,44,0.00,,,-99.99,,2013-09-03 21:54:00,
2013-09-03 17:04:00,73.0,50.0,-100.00,WSW,255,0.0,0.0,44,0.00,,,-99.99,,2013-09-03 22:04:00,
2013-09-03 17:10:00,72.0,53.0,-100.00,WSW,240,0.0,0.0,51,0.00,,,-99.99,,2013-09-03 22:10:00,
2013-09-03 17:43:00,72.0,53.0,-100.00,WSW,240,0.0,0.0,51,0.00,,,-99.99,,2013-09-03 22:43:00,
2013-09-03 17:53:00,72.0,53.0,-100.00,WSW,240,0.0,0.0,51,0.00,,,-99.99,,2013-09-03 22:53:00,
2013-09-03 18:04:00,72.0,53.0,-100.00,WSW,240,0.0,0.0,51,0.00,,,-99.99,,2013-09-03 23:04:00,
2013-09-03 18:10:00,68.0,51.0,-100.00,West,275,0.0,0.0,54,0.00,,,-99.99,,2013-09-03 23:10:00,
2013-09-03 18:42:00,68.0,51.0,-100.00,West,275,0.0,0.0,54,0.00,,,-99.99,,2013-09-03 23:42:00,
2013-09-03 18:54:00,68.0,51.0,-100.00,West,275,0.0,0.0,54,0.00,,,-99.99,,2013-09-03 23:54:00,
2013-09-03 19:02:00,68.0,51.0,-100.00,West,275,0.0,0.0,54,0.00,,,-99.99,,2013-09-04 00:02:00,
2013-09-03 19:10:00,64.0,50.0,-100.00,WNW,295,0.0,0.0,61,0.00,,,-99.99,,2013-09-04 00:10:00,
2013-09-03 19:52:00,64.0,50.0,-100.00,WNW,295,0.0,0.0,61,0.00,,,-99.99,,2013-09-04 00:52:00,
2013-09-03 20:01:00,64.0,50.0,-100.00,WNW,295,0.0,0.0,61,0.00,,,-99.99,,2013-09-04 01:01:00,
2013-09-03 20:42:00,60.0,53.0,-100.00,WNW,290,0.0,0.0,76,0.00,,,-99.99,,2013-09-04 01:42:00,
2013-09-03 20:53:00,60.0,53.0,-100.00,WNW,290,0.0,0.0,76,0.00,,,-99.99,,2013-09-04 01:53:00,
2013-09-03 21:02:00,60.0,53.0,-100.00,WNW,290,0.0,0.0,76,0.00,,,-99.99,,2013-09-04 02:02:00,
2013-09-03 21:10:00,60.0,54.0,-100.00,WNW,295,0.0,0.0,80,0.00,,,-99.99,,2013-09-04 02:10:00,
2013-09-03 21:43:00,60.0,54.0,-100.00,WNW,295,0.0,0.0,80,0.00,,,-99.99,,2013-09-04 02:43:00,
2013-09-03 21:52:00,60.0,54.0,-100.00,WNW,295,0.0,0.0,80,0.00,,,-99.99,,2013-09-04 02:52:00,
2013-09-03 22:03:00,60.0,54.0,-100.00,WNW,295,0.0,0.0,80,0.00,,,-99.99,,2013-09-04 03:03:00,
2013-09-03 22:10:00,59.0,55.0,-100.00,NW,305,0.0,0.0,86,0.00,,,-99.99,,2013-09-04 03:10:00,
2013-09-03 22:44:00,59.0,55.0,-100.00,NW,305,0.0,0.0,86,0.00,,,-99.99,,2013-09-04 03:44:00,
2013-09-03 22:54:00,59.0,55.0,-100.00,NW,305,0.0,0.0,86,0.00,,,-99.99,,2013-09-04 03:54:00,
2013-09-03 23:04:00,59.0,55.0,-100.00,NW,305,0.0,0.0,86,0.00,,,-99.99,,2013-09-04 04:04:00,
2013-09-03 23:10:00,58.0,55.0,-100.00,NW,315,0.0,0.0,89,0.00,,,-99.99,,2013-09-04 04:10:00,
2013-09-03 23:44:00,58.0,55.0,-100.00,NW,315,0.0,0.0,89,0.00,,,-99.99,,2013-09-04 04:44:00,
2013-09-03 23:54:00,58.0,55.0,-100.00,NW,315,0.0,0.0,89,0.00,,,-99.99,,2013-09-04 04:54:00,